createdAt,value
2018-09-11T00:01:01.350Z,6.2
2018-09-11T00:06:01.271Z,6.0
2018-09-11T00:11:01.231Z,6.0
2018-09-11T00:21:01.372Z,5.8
2018-09-11T00:26:01.247Z,6.0
2018-09-11T00:31:01.308Z,6.2
2018-09-11T00:41:01.310Z,6.1
2018-09-11T00:46:01.183Z,5.8
2018-09-11T00:51:01.365Z,5.8
2018-09-11T00:56:01.216Z,5.5
2018-09-11T01:01:01.348Z,5.7
2018-09-11T01:07:01.413Z,5.7
2018-09-11T01:12:06.231Z,5.8
2018-09-11T01:17:01.281Z,6.0
2018-09-11T01:27:01.255Z,6.0
2018-09-11T01:32:01.271Z,5.9
2018-09-11T01:37:01.407Z,6.3
2018-09-11T01:42:01.285Z,6.2
2018-09-11T01:47:01.396Z,6.6
2018-09-11T01:52:01.219Z,6.8
2018-09-11T01:57:01.345Z,7.1
2018-09-11T02:07:01.315Z,7.3
2018-09-11T02:12:01.263Z,7.1
2018-09-11T02:22:01.365Z,7.1
2018-09-11T02:32:01.211Z,7.0
2018-09-11T02:37:01.373Z,7.1
2018-09-11T02:42:01.314Z,7.3
2018-09-11T02:47:01.341Z,7.5
2018-09-11T02:52:01.251Z,7.5
2018-09-11T02:57:01.314Z,7.4
2018-09-11T03:02:01.256Z,7.6
2018-09-11T03:07:01.384Z,7.6
2018-09-11T03:12:01.190Z,7.7
2018-09-11T03:17:01.301Z,7.8
2018-09-11T03:22:01.246Z,8.2
2018-09-11T03:32:01.337Z,8.3
2018-09-11T03:37:01.404Z,8.8
2018-09-11T03:42:01.271Z,9.3
2018-09-11T03:47:01.343Z,9.6
2018-09-11T03:52:01.184Z,10.5
2018-09-11T04:02:01.377Z,11.4
2018-09-11T04:07:01.315Z,12.0
2018-09-11T04:12:01.216Z,12.2
2018-09-11T04:17:01.340Z,12.5
2018-09-11T04:22:01.300Z,12.6
2018-09-11T04:27:01.331Z,13.0
2018-09-11T04:32:01.210Z,12.8
2018-09-11T04:37:01.240Z,13.3
2018-09-11T04:42:01.243Z,12.8
2018-09-11T04:47:01.247Z,12.9
2018-09-11T04:52:01.265Z,12.7
2018-09-11T04:57:01.216Z,12.2
2018-09-11T05:02:01.255Z,12.0
2018-09-11T05:07:01.325Z,11.6
2018-09-11T05:12:01.208Z,11.8
2018-09-11T05:17:01.242Z,11.7
2018-09-11T05:22:01.248Z,11.6
2018-09-11T05:27:01.234Z,11.0
2018-09-11T05:32:01.209Z,11.5
2018-09-11T05:37:01.284Z,11.4
2018-09-11T05:47:01.424Z,11.6
2018-09-11T05:52:01.312Z,12.5
2018-09-11T05:57:01.312Z,13.0
2018-09-11T06:02:01.183Z,13.7
2018-09-11T06:07:01.387Z,14.6
2018-09-11T06:12:01.211Z,14.8
2018-09-11T06:17:01.285Z,15.0
2018-09-11T06:22:01.219Z,14.9
2018-09-11T06:27:01.317Z,15.6
2018-09-11T06:32:01.235Z,16.1
2018-09-11T06:37:01.234Z,17.8
2018-09-11T06:42:01.204Z,19.6
2018-09-11T06:47:01.542Z,21.4
2018-09-11T06:52:01.205Z,21.9
2018-09-11T06:57:01.305Z,22.7
2018-09-11T07:02:01.492Z,22.5
2018-09-11T07:07:01.305Z,21.7
2018-09-11T07:12:01.252Z,22.0
2018-09-11T07:17:01.340Z,22.2
2018-09-11T07:22:06.215Z,22.4
2018-09-11T07:27:06.257Z,23.4
2018-09-11T07:32:06.189Z,24.7
2018-09-11T07:37:06.243Z,24.8
2018-09-11T07:42:06.256Z,25.1
2018-09-11T07:47:06.394Z,25.0
2018-09-11T07:53:01.526Z,24.3
2018-09-11T07:58:01.599Z,24.0
2018-09-11T08:03:01.305Z,23.0
2018-09-11T08:08:06.243Z,22.5
2018-09-11T08:13:01.281Z,22.5
2018-09-11T08:18:06.278Z,22.6
2018-09-11T08:23:06.254Z,21.8
2018-09-11T08:28:06.221Z,22.4
2018-09-11T08:38:06.225Z,22.5
2018-09-11T08:43:01.240Z,21.6
2018-09-11T08:48:01.284Z,21.2
2018-09-11T08:53:01.276Z,21.0
2018-09-11T08:58:01.381Z,20.8
2018-09-11T09:03:01.237Z,20.4
2018-09-11T09:08:01.340Z,22.3
2018-09-11T09:13:01.244Z,23.8
2018-09-11T09:18:01.212Z,25.4
2018-09-11T09:23:01.217Z,27.2
2018-09-11T09:28:01.312Z,28.5
2018-09-11T09:33:01.220Z,28.6
2018-09-11T09:38:01.377Z,28.5
2018-09-11T09:43:01.601Z,28.0
2018-09-11T09:48:01.266Z,27.7
2018-09-11T09:53:01.177Z,28.0
2018-09-11T09:58:01.311Z,28.9
2018-09-11T10:03:01.242Z,29.8
2018-09-11T10:08:01.303Z,31.2
2018-09-11T10:13:01.205Z,31.6
2018-09-11T10:18:01.378Z,33.0
2018-09-11T10:23:01.246Z,32.3
2018-09-11T10:28:01.319Z,32.2
2018-09-11T10:33:01.245Z,31.7
2018-09-11T10:38:01.248Z,31.4
2018-09-11T10:43:01.212Z,30.4
2018-09-11T10:48:01.375Z,30.5
2018-09-11T10:53:01.219Z,30.1
2018-09-11T10:58:01.348Z,29.2
2018-09-11T11:03:01.254Z,28.9
2018-09-11T11:08:01.285Z,27.6
2018-09-11T11:13:01.317Z,26.2
2018-09-11T11:18:01.222Z,25.9
2018-09-11T11:23:01.248Z,24.9
2018-09-11T11:28:01.239Z,24.0
2018-09-11T11:33:01.243Z,22.8
2018-09-11T11:38:01.305Z,22.2
2018-09-11T11:43:01.212Z,21.0
2018-09-11T11:48:01.399Z,22.1
2018-09-11T11:53:01.209Z,21.6
2018-09-11T11:58:01.378Z,21.7
2018-09-11T12:03:01.215Z,22.5
2018-09-11T12:08:01.374Z,23.2
2018-09-11T12:13:01.212Z,22.1
2018-09-11T12:18:01.312Z,22.4
2018-09-11T12:23:01.253Z,22.3
2018-09-11T12:28:01.262Z,21.6
2018-09-11T12:33:01.228Z,20.4
2018-09-11T12:38:01.337Z,19.7
2018-09-11T12:43:01.256Z,18.8
2018-09-11T12:48:02.779Z,19.0
2018-09-11T12:53:01.207Z,18.0
2018-09-11T12:58:01.286Z,16.4
2018-09-11T13:03:01.249Z,15.3
2018-09-11T13:08:01.385Z,14.2
2018-09-11T13:13:01.221Z,12.4
2018-09-11T13:18:01.336Z,10.9
2018-09-11T13:23:01.297Z,10.2
2018-09-11T13:28:01.304Z,9.2
2018-09-11T13:33:01.279Z,8.4
2018-09-11T13:38:01.314Z,8.0
2018-09-11T13:43:01.251Z,8.1
2018-09-11T13:48:01.247Z,7.8
2018-09-11T13:53:01.555Z,7.1
2018-09-11T13:58:01.248Z,6.8
2018-09-11T14:03:01.196Z,6.4
2018-09-11T14:08:01.284Z,5.3
2018-09-11T14:13:01.221Z,5.3
2018-09-11T14:18:01.353Z,5.4
2018-09-11T14:23:01.180Z,5.0
2018-09-11T14:28:01.347Z,5.0
2018-09-11T14:33:01.222Z,5.7
2018-09-11T14:38:01.311Z,6.0
2018-09-11T14:43:01.220Z,6.4
2018-09-11T14:48:01.246Z,6.9
2018-09-11T14:53:01.224Z,6.6
2018-09-11T14:58:01.255Z,6.0
2018-09-11T15:03:01.253Z,5.3
2018-09-11T15:08:01.538Z,4.4
2018-09-11T15:13:01.232Z,3.8
2018-09-11T15:18:01.289Z,3.8
2018-09-11T15:23:01.223Z,4.0
2018-09-11T15:28:01.351Z,4.2
2018-09-11T15:33:01.219Z,4.7
2018-09-11T15:38:01.366Z,5.1
2018-09-11T15:43:01.240Z,5.6
2018-09-11T15:48:01.263Z,6.0
2018-09-11T15:53:01.210Z,6.2
2018-09-11T15:58:01.309Z,6.3
2018-09-11T16:03:01.268Z,6.2
2018-09-11T16:08:06.281Z,6.3
2018-09-11T16:13:06.260Z,6.3
2018-09-11T16:18:06.221Z,6.8
2018-09-11T16:23:06.249Z,6.9
2018-09-11T16:28:06.354Z,7.0
2018-09-11T16:33:06.256Z,6.8
2018-09-11T16:38:06.282Z,6.7
2018-09-11T16:43:06.225Z,6.0
2018-09-11T16:48:06.381Z,5.8
2018-09-11T16:53:06.219Z,5.8
2018-09-11T16:58:06.255Z,5.6
2018-09-11T17:03:06.420Z,5.0
2018-09-11T17:08:06.312Z,5.2
2018-09-11T17:13:06.217Z,5.4
2018-09-11T17:18:01.326Z,5.2
2018-09-11T17:23:01.229Z,4.7
2018-09-11T17:28:01.361Z,5.2
2018-09-11T17:33:01.191Z,4.7
2018-09-11T17:38:01.295Z,4.8
2018-09-11T17:43:06.239Z,5.0
2018-09-11T17:48:06.242Z,5.2
2018-09-11T17:53:06.247Z,5.0
2018-09-11T18:03:01.481Z,4.9
2018-09-11T18:08:06.269Z,4.6
2018-09-11T18:18:06.222Z,4.7
2018-09-11T18:23:06.260Z,4.9
2018-09-11T18:33:06.211Z,5.2
2018-09-11T18:38:06.415Z,5.0
2018-09-11T18:43:06.242Z,5.2
2018-09-11T18:48:06.257Z,5.2
2018-09-11T18:53:01.255Z,5.4
2018-09-11T18:58:01.588Z,5.0
2018-09-11T19:08:02.285Z,4.8
2018-09-11T19:13:01.222Z,4.6
2018-09-11T19:18:01.242Z,4.3
2018-09-11T19:23:01.282Z,4.4
2018-09-11T19:28:01.414Z,4.6
2018-09-11T19:33:01.212Z,4.8
2018-09-11T19:38:06.247Z,4.6
2018-09-11T19:43:01.270Z,4.2
2018-09-11T19:48:01.348Z,4.2
2018-09-11T19:53:06.185Z,3.8
2018-09-11T19:58:01.307Z,3.6
2018-09-11T20:08:01.308Z,3.8
2018-09-11T20:18:01.380Z,4.4
2018-09-11T20:23:01.262Z,4.4
2018-09-11T20:28:01.216Z,4.7
2018-09-11T20:38:01.308Z,4.7
2018-09-11T20:43:01.241Z,4.3
2018-09-11T20:48:01.305Z,4.3
2018-09-11T20:53:01.215Z,4.0
2018-09-11T20:58:01.362Z,4.0
2018-09-11T21:03:01.213Z,4.2
2018-09-11T21:08:06.255Z,4.2
2018-09-11T21:13:01.247Z,4.3
2018-09-11T21:18:01.280Z,4.3
2018-09-11T21:28:01.318Z,4.1
2018-09-11T21:38:01.223Z,4.2
2018-09-11T21:43:01.239Z,4.2
2018-09-11T21:53:01.331Z,4.2
2018-09-11T21:58:01.279Z,4.2
2018-09-11T22:03:01.223Z,4.0
2018-09-11T22:08:01.344Z,4.0
2018-09-11T22:13:06.222Z,4.2
2018-09-11T22:18:01.346Z,4.4
2018-09-11T22:28:01.296Z,4.8
2018-09-11T22:33:01.205Z,4.8
2018-09-11T22:38:01.238Z,4.7
2018-09-11T22:43:01.377Z,4.9
2018-09-11T22:48:01.373Z,5.1
2018-09-11T22:53:01.245Z,5.0
2018-09-11T22:58:06.262Z,5.1
2018-09-11T23:03:01.264Z,5.2
2018-09-11T23:08:01.273Z,5.0
2018-09-11T23:13:06.255Z,4.6
2018-09-11T23:18:01.291Z,4.9
2018-09-11T23:23:01.289Z,5.0
2018-09-11T23:28:01.292Z,4.8
2018-09-11T23:33:01.273Z,4.9
2018-09-11T23:38:06.230Z,5.1
2018-09-11T23:43:01.280Z,4.7
2018-09-11T23:58:01.405Z,4.2
